createdAt,value
2022-10-25T00:03:56.203Z,8.00
2022-10-25T00:08:58.569Z,7.90
2022-10-25T00:14:04.162Z,8.60
2022-10-25T00:19:06.615Z,8.43
2022-10-25T00:24:10.729Z,8.57
2022-10-25T00:29:13.548Z,8.48
2022-10-25T00:34:15.966Z,7.63
2022-10-25T00:39:18.474Z,7.97
2022-10-25T00:44:39.125Z,7.18
2022-10-25T00:49:42.447Z,6.53
2022-10-25T00:54:47.259Z,6.47
2022-10-25T00:59:49.796Z,6.88
2022-10-25T01:04:52.195Z,6.35
2022-10-25T01:09:54.583Z,7.55
2022-10-25T01:14:56.958Z,6.93
2022-10-25T01:20:33.179Z,6.53
2022-10-25T01:25:38.221Z,6.38
2022-10-25T01:31:17.429Z,9.55
2022-10-25T01:36:44.997Z,9.00
2022-10-25T01:42:05.624Z,8.35
2022-10-25T01:47:15.644Z,9.13
2022-10-25T01:52:22.535Z,7.85
2022-10-25T01:57:46.774Z,6.82
2022-10-25T02:03:15.007Z,8.85
2022-10-25T02:08:23.139Z,8.02
2022-10-25T02:13:49.002Z,9.23
2022-10-25T02:18:55.666Z,9.45
2022-10-25T02:23:59.308Z,6.50
2022-10-25T02:29:04.485Z,8.63
2022-10-25T02:34:07.160Z,8.85
2022-10-25T02:39:09.486Z,8.07
2022-10-25T02:44:11.775Z,9.02
2022-10-25T02:49:14.056Z,9.48
2022-10-25T02:54:16.472Z,8.98
2022-10-25T02:59:20.073Z,9.68
2022-10-25T03:04:22.556Z,9.77
2022-10-25T03:09:24.839Z,9.13
2022-10-25T03:14:27.127Z,8.77
2022-10-25T03:19:29.483Z,9.07
2022-10-25T03:24:31.866Z,9.98
2022-10-25T03:29:34.195Z,10.00
2022-10-25T03:34:36.537Z,10.93
2022-10-25T03:39:38.919Z,11.60
2022-10-25T03:44:41.334Z,10.10
2022-10-25T03:49:43.659Z,11.55
2022-10-25T03:54:45.998Z,9.15
2022-10-25T03:59:48.272Z,9.45
2022-10-25T04:04:50.661Z,10.02
2022-10-25T04:09:53.050Z,11.35
2022-10-25T04:14:55.468Z,14.35
2022-10-25T04:19:57.756Z,16.20
2022-10-25T04:25:00.166Z,25.40
2022-10-25T04:30:02.571Z,15.00
2022-10-25T04:35:05.349Z,17.77
2022-10-25T04:40:08.271Z,21.20
2022-10-25T04:45:10.807Z,13.38
2022-10-25T04:50:13.170Z,12.13
2022-10-25T04:55:15.593Z,17.85
2022-10-25T05:00:17.932Z,24.30
2022-10-25T05:05:21.118Z,26.65
2022-10-25T05:10:23.481Z,29.20
2022-10-25T05:15:25.875Z,17.63
2022-10-25T05:20:29.253Z,14.32
2022-10-25T05:25:31.687Z,12.32
2022-10-25T05:30:34.021Z,15.93
2022-10-25T05:35:36.694Z,17.02
2022-10-25T05:40:38.934Z,14.70
2022-10-25T05:45:41.256Z,15.40
2022-10-25T05:50:43.586Z,14.23
2022-10-25T05:55:45.843Z,16.77
2022-10-25T06:00:48.184Z,12.73
2022-10-25T06:05:50.468Z,10.32
2022-10-25T06:10:52.732Z,9.82
2022-10-25T06:15:55.025Z,10.40
2022-10-25T06:20:57.322Z,9.45
2022-10-25T06:26:06.478Z,10.07
2022-10-25T06:31:11.847Z,9.27
2022-10-25T06:36:19.404Z,9.68
2022-10-25T06:46:30.669Z,10.48
2022-10-25T06:51:34.541Z,11.07
2022-10-25T06:56:37.279Z,14.13
2022-10-25T07:01:39.672Z,10.05
2022-10-25T07:06:42.033Z,9.82
2022-10-25T07:11:45.843Z,10.32
2022-10-25T07:16:48.167Z,9.75
2022-10-25T07:21:50.650Z,11.80
2022-10-25T07:26:52.947Z,11.07
2022-10-25T07:31:55.339Z,11.13
2022-10-25T07:36:57.714Z,9.82
2022-10-25T07:42:00.085Z,9.40
2022-10-25T07:47:02.387Z,9.65
2022-10-25T07:52:04.810Z,8.93
2022-10-25T07:57:07.227Z,8.65
2022-10-25T08:02:12.262Z,9.60
2022-10-25T08:07:14.650Z,9.85
2022-10-25T08:12:21.602Z,9.52
2022-10-25T08:17:24.891Z,8.27
2022-10-25T08:22:27.227Z,8.10
2022-10-25T08:27:29.617Z,8.52
2022-10-25T08:32:31.982Z,8.57
2022-10-25T08:37:34.313Z,9.05
2022-10-25T08:42:58.577Z,7.45
2022-10-25T08:48:01.378Z,7.20
2022-10-25T08:53:06.616Z,8.20
2022-10-25T08:58:22.431Z,7.53
2022-10-25T09:03:26.854Z,7.28
2022-10-25T09:08:59.921Z,7.15
2022-10-25T09:14:19.769Z,7.20
2022-10-25T09:19:26.576Z,7.43
2022-10-25T09:24:36.624Z,7.00
2022-10-25T09:29:50.574Z,6.20
2022-10-25T09:34:54.732Z,8.75
2022-10-25T09:40:00.739Z,5.72
2022-10-25T09:45:08.176Z,5.95
2022-10-25T09:50:31.415Z,5.47
2022-10-25T09:55:47.019Z,6.22
2022-10-25T10:00:51.115Z,8.43
2022-10-25T10:05:58.130Z,7.55
2022-10-25T10:11:00.584Z,6.97
2022-10-25T10:16:35.708Z,5.70
2022-10-25T10:21:38.411Z,11.68
2022-10-25T10:26:49.708Z,5.95
2022-10-25T10:31:54.482Z,5.47
2022-10-25T10:37:07.967Z,5.13
2022-10-25T10:42:22.250Z,4.20
2022-10-25T10:47:26.316Z,4.00
2022-10-25T10:52:32.975Z,6.53
2022-10-25T10:57:36.133Z,4.70
2022-10-25T11:02:41.837Z,7.32
2022-10-25T11:07:44.562Z,5.90
2022-10-25T11:13:05.296Z,5.68
2022-10-25T11:18:08.536Z,5.03
2022-10-25T11:23:32.602Z,5.03
2022-10-25T11:28:49.137Z,5.60
2022-10-25T11:34:20.404Z,6.20
2022-10-25T11:40:14.949Z,5.90
2022-10-25T11:45:33.483Z,8.10
2022-10-25T11:50:57.830Z,6.28
2022-10-25T11:56:01.542Z,7.22
2022-10-25T12:01:48.985Z,7.97
2022-10-25T12:07:30.725Z,8.60
2022-10-25T12:13:01.699Z,8.05
2022-10-25T12:18:06.643Z,10.07
2022-10-25T12:23:13.584Z,11.00
2022-10-25T12:28:45.579Z,10.70
2022-10-25T12:33:54.977Z,10.13
2022-10-25T12:39:00.831Z,10.25
2022-10-25T12:44:15.243Z,10.10
2022-10-25T12:50:05.081Z,10.70
2022-10-25T12:55:07.343Z,9.32
2022-10-25T13:00:11.772Z,7.57
2022-10-25T13:05:32.126Z,7.22
2022-10-25T13:10:43.351Z,5.90
2022-10-25T13:15:50.292Z,6.78
2022-10-25T13:20:53.179Z,6.47
2022-10-25T13:26:08.576Z,6.32
2022-10-25T13:31:35.572Z,8.23
2022-10-25T13:36:48.486Z,7.85
2022-10-25T13:41:50.950Z,7.50
2022-10-25T13:46:55.060Z,9.05
2022-10-25T13:51:59.338Z,7.50
2022-10-25T13:57:01.574Z,6.22
2022-10-25T14:02:19.491Z,5.45
2022-10-25T14:07:47.836Z,6.05
2022-10-25T14:12:53.660Z,6.40
2022-10-25T14:17:56.642Z,6.22
2022-10-25T14:23:07.863Z,6.45
2022-10-25T14:28:29.511Z,10.63
2022-10-25T14:33:53.054Z,8.45
2022-10-25T14:39:01.010Z,7.35
2022-10-25T14:44:03.455Z,8.85
2022-10-25T14:49:10.041Z,8.88
2022-10-25T14:54:15.094Z,9.85
2022-10-25T14:59:45.052Z,10.55
2022-10-25T15:04:49.928Z,9.35
2022-10-25T15:09:54.070Z,32.15
2022-10-25T15:14:59.451Z,9.60
2022-10-25T15:20:16.556Z,8.85
2022-10-25T15:25:24.758Z,13.07
2022-10-25T15:30:40.507Z,12.18
2022-10-25T15:35:48.445Z,9.90
2022-10-25T15:40:50.944Z,10.63
2022-10-25T15:45:54.824Z,10.18
2022-10-25T15:50:58.441Z,9.10
2022-10-25T15:56:00.748Z,8.90
2022-10-25T16:01:03.140Z,8.98
2022-10-25T16:06:05.961Z,8.07
2022-10-25T16:11:14.801Z,8.93
2022-10-25T16:16:39.507Z,10.05
2022-10-25T16:21:43.716Z,10.35
2022-10-25T16:26:47.885Z,8.75
2022-10-25T16:31:50.351Z,8.18
2022-10-25T16:36:52.952Z,6.82
2022-10-25T16:41:58.386Z,7.80
2022-10-25T16:47:00.747Z,9.75
2022-10-25T16:52:03.301Z,11.65
2022-10-25T16:57:05.962Z,10.23
2022-10-25T17:02:26.695Z,10.50
2022-10-25T17:07:30.569Z,11.10
2022-10-25T17:12:32.910Z,9.95
2022-10-25T17:17:35.247Z,11.30
2022-10-25T17:22:38.510Z,13.30
2022-10-25T17:27:45.475Z,12.85
2022-10-25T17:32:48.459Z,14.07
2022-10-25T17:37:54.686Z,15.23
2022-10-25T17:42:56.977Z,13.40
2022-10-25T17:48:00.403Z,15.05
2022-10-25T17:53:02.953Z,17.88
2022-10-25T17:58:05.250Z,16.48
2022-10-25T18:03:07.578Z,17.92
2022-10-25T18:08:10.101Z,21.48
2022-10-25T18:13:12.429Z,22.58
2022-10-25T18:18:14.713Z,26.33
2022-10-25T18:23:17.914Z,28.90
2022-10-25T18:28:20.299Z,25.25
2022-10-25T18:33:25.153Z,22.40
2022-10-25T18:38:27.644Z,21.77
2022-10-25T18:43:30.114Z,21.92
2022-10-25T18:48:32.528Z,22.38
2022-10-25T18:53:39.606Z,23.10
2022-10-25T18:58:42.555Z,21.15
2022-10-25T19:03:45.399Z,23.52
2022-10-25T19:08:49.335Z,21.85
2022-10-25T19:13:55.606Z,22.15
2022-10-25T19:19:02.434Z,22.33
2022-10-25T19:24:05.318Z,16.63
2022-10-25T19:29:07.614Z,21.05
2022-10-25T19:34:09.942Z,20.73
2022-10-25T19:39:12.252Z,23.70
2022-10-25T19:44:14.610Z,22.27
2022-10-25T19:49:17.430Z,20.85
2022-10-25T19:54:20.037Z,20.85
2022-10-25T19:59:22.471Z,21.55
2022-10-25T20:04:24.991Z,22.73
2022-10-25T20:09:27.336Z,20.42
2022-10-25T20:14:30.938Z,21.73
2022-10-25T20:19:33.297Z,21.40
2022-10-25T20:24:35.713Z,20.73
2022-10-25T20:29:37.975Z,20.73
2022-10-25T20:34:40.290Z,20.90
2022-10-25T20:39:42.781Z,20.48
2022-10-25T20:44:45.127Z,20.02
2022-10-25T20:49:47.432Z,22.23
2022-10-25T20:54:50.210Z,22.92
2022-10-25T20:59:52.529Z,22.45
2022-10-25T21:04:54.910Z,21.52
2022-10-25T21:09:57.328Z,18.40
2022-10-25T21:14:59.655Z,19.70
2022-10-25T21:20:02.114Z,18.65
2022-10-25T21:25:04.559Z,20.20
2022-10-25T21:30:07.867Z,17.98
2022-10-25T21:35:10.256Z,18.67
2022-10-25T21:40:12.725Z,19.25
2022-10-25T21:45:15.071Z,19.08
2022-10-25T21:50:17.452Z,20.13
2022-10-25T21:55:19.749Z,19.95
2022-10-25T22:00:22.039Z,21.90
2022-10-25T22:05:24.390Z,19.33
2022-10-25T22:10:26.910Z,19.27
2022-10-25T22:15:29.179Z,21.15
2022-10-25T22:20:31.480Z,21.23
2022-10-25T22:25:33.797Z,21.05
2022-10-25T22:30:36.115Z,19.95
2022-10-25T22:35:38.540Z,20.85
2022-10-25T22:40:41.430Z,21.88
2022-10-25T22:45:43.733Z,20.58
2022-10-25T22:50:54.114Z,22.98
2022-10-25T22:56:05.280Z,22.23
2022-10-25T23:01:11.517Z,23.13
2022-10-25T23:06:15.837Z,24.65
2022-10-25T23:11:20.624Z,22.92
2022-10-25T23:16:22.886Z,25.23
2022-10-25T23:21:26.993Z,23.33
2022-10-25T23:26:34.351Z,25.67
2022-10-25T23:31:37.245Z,28.52
2022-10-25T23:36:39.563Z,24.92
2022-10-25T23:41:41.888Z,26.80
2022-10-25T23:46:44.219Z,24.95
2022-10-25T23:51:46.816Z,22.50
2022-10-25T23:56:49.142Z,23.63
